sensor_id;sensor_type;location;lat;lon;timestamp;pressure;altitude;pressure_sealevel;temperature;humidity
31761;BME280;18335;51.486;7.562;2022-07-09T00:00:14;101392.31;;;19.09;100.00
31761;BME280;18335;51.486;7.562;2022-07-09T00:02:42;101381.09;;;18.96;100.00
31761;BME280;18335;51.486;7.562;2022-07-09T00:05:09;101383.16;;;18.94;100.00
31761;BME280;18335;51.486;7.562;2022-07-09T00:07:37;101384.41;;;18.91;100.00
31761;BME280;18335;51.486;7.562;2022-07-09T00:10:05;101387.28;;;18.98;100.00
31761;BME280;18335;51.486;7.562;2022-07-09T00:12:31;101379.75;;;18.92;100.00
31761;BME280;18335;51.486;7.562;2022-07-09T00:14:58;101381.84;;;18.90;100.00
31761;BME280;18335;51.486;7.562;2022-07-09T00:17:25;101372.09;;;18.94;100.00
31761;BME280;18335;51.486;7.562;2022-07-09T00:19:53;101379.19;;;18.82;100.00
31761;BME280;18335;51.486;7.562;2022-07-09T00:22:20;101380.50;;;18.86;100.00
31761;BME280;18335;51.486;7.562;2022-07-09T00:24:46;101375.75;;;18.79;100.00
31761;BME280;18335;51.486;7.562;2022-07-09T00:27:13;101372.97;;;18.65;100.00
31761;BME280;18335;51.486;7.562;2022-07-09T00:29:40;101370.97;;;18.73;100.00
31761;BME280;18335;51.486;7.562;2022-07-09T00:32:07;101380.34;;;18.72;100.00
31761;BME280;18335;51.486;7.562;2022-07-09T00:34:34;101375.97;;;18.63;100.00
31761;BME280;18335;51.486;7.562;2022-07-09T00:37:02;101372.66;;;18.45;100.00
31761;BME280;18335;51.486;7.562;2022-07-09T00:39:29;101374.38;;;18.46;100.00
31761;BME280;18335;51.486;7.562;2022-07-09T00:42:03;101373.94;;;18.57;100.00
31761;BME280;18335;51.486;7.562;2022-07-09T00:44:30;101372.22;;;18.56;100.00
31761;BME280;18335;51.486;7.562;2022-07-09T00:46:57;101376.59;;;18.51;100.00
31761;BME280;18335;51.486;7.562;2022-07-09T00:49:24;101371.56;;;18.54;100.00
31761;BME280;18335;51.486;7.562;2022-07-09T00:51:54;101365.78;;;18.41;100.00
31761;BME280;18335;51.486;7.562;2022-07-09T00:54:24;101368.50;;;18.49;100.00
31761;BME280;18335;51.486;7.562;2022-07-09T00:56:51;101367.16;;;18.45;100.00
31761;BME280;18335;51.486;7.562;2022-07-09T00:59:19;101356.84;;;18.39;100.00
31761;BME280;18335;51.486;7.562;2022-07-09T01:01:48;101358.84;;;18.31;100.00
31761;BME280;18335;51.486;7.562;2022-07-09T01:04:15;101358.75;;;18.39;100.00
31761;BME280;18335;51.486;7.562;2022-07-09T01:06:42;101355.97;;;18.39;100.00
31761;BME280;18335;51.486;7.562;2022-07-09T01:09:09;101350.72;;;18.29;100.00
31761;BME280;18335;51.486;7.562;2022-07-09T01:11:37;101359.16;;;18.13;100.00
31761;BME280;18335;51.486;7.562;2022-07-09T01:14:04;101348.81;;;18.15;100.00
31761;BME280;18335;51.486;7.562;2022-07-09T01:16:31;101350.06;;;17.90;100.00
31761;BME280;18335;51.486;7.562;2022-07-09T01:18:59;101355.47;;;17.83;100.00
31761;BME280;18335;51.486;7.562;2022-07-09T01:21:27;101353.91;;;17.89;100.00
31761;BME280;18335;51.486;7.562;2022-07-09T01:23:54;101355.41;;;17.91;100.00
31761;BME280;18335;51.486;7.562;2022-07-09T01:26:21;101357.56;;;18.04;100.00
31761;BME280;18335;51.486;7.562;2022-07-09T01:28:49;101349.72;;;18.07;100.00
31761;BME280;18335;51.486;7.562;2022-07-09T01:31:16;101348.19;;;18.05;100.00
31761;BME280;18335;51.486;7.562;2022-07-09T01:33:43;101348.91;;;18.07;100.00
31761;BME280;18335;51.486;7.562;2022-07-09T01:36:11;101341.88;;;17.82;100.00
31761;BME280;18335;51.486;7.562;2022-07-09T01:38:39;101354.47;;;17.99;100.00
31761;BME280;18335;51.486;7.562;2022-07-09T01:41:06;101353.53;;;17.69;100.00
31761;BME280;18335;51.486;7.562;2022-07-09T01:43:32;101342.75;;;17.97;100.00
31761;BME280;18335;51.486;7.562;2022-07-09T01:46:00;101346.69;;;18.02;100.00
31761;BME280;18335;51.486;7.562;2022-07-09T01:48:27;101343.44;;;17.99;100.00
31761;BME280;18335;51.486;7.562;2022-07-09T01:50:54;101339.25;;;18.03;100.00
31761;BME280;18335;51.486;7.562;2022-07-09T01:53:21;101332.75;;;17.96;100.00
31761;BME280;18335;51.486;7.562;2022-07-09T01:55:49;101323.84;;;18.08;100.00
31761;BME280;18335;51.486;7.562;2022-07-09T01:58:15;101318.41;;;18.00;100.00
31761;BME280;18335;51.486;7.562;2022-07-09T02:00:43;101311.81;;;18.01;100.00
31761;BME280;18335;51.486;7.562;2022-07-09T02:03:10;101314.19;;;18.04;100.00
31761;BME280;18335;51.486;7.562;2022-07-09T02:05:37;101319.53;;;18.06;100.00
31761;BME280;18335;51.486;7.562;2022-07-09T02:08:03;101313.38;;;18.04;100.00
31761;BME280;18335;51.486;7.562;2022-07-09T02:10:30;101317.41;;;17.93;100.00
31761;BME280;18335;51.486;7.562;2022-07-09T02:12:59;101314.13;;;17.98;100.00
31761;BME280;18335;51.486;7.562;2022-07-09T02:15:25;101319.16;;;17.94;100.00
31761;BME280;18335;51.486;7.562;2022-07-09T02:17:52;101313.88;;;17.85;100.00
31761;BME280;18335;51.486;7.562;2022-07-09T02:20:19;101321.41;;;17.91;100.00
31761;BME280;18335;51.486;7.562;2022-07-09T02:22:46;101319.28;;;17.78;100.00
31761;BME280;18335;51.486;7.562;2022-07-09T02:25:13;101315.97;;;17.83;100.00
31761;BME280;18335;51.486;7.562;2022-07-09T02:27:39;101317.94;;;17.74;100.00
31761;BME280;18335;51.486;7.562;2022-07-09T02:30:08;101313.38;;;17.81;100.00
31761;BME280;18335;51.486;7.562;2022-07-09T02:32:35;101312.38;;;17.59;100.00
31761;BME280;18335;51.486;7.562;2022-07-09T02:35:04;101311.88;;;17.79;100.00
31761;BME280;18335;51.486;7.562;2022-07-09T02:37:31;101302.59;;;17.72;100.00
31761;BME280;18335;51.486;7.562;2022-07-09T02:39:59;101311.88;;;17.79;100.00
31761;BME280;18335;51.486;7.562;2022-07-09T02:42:26;101308.53;;;17.83;100.00
31761;BME280;18335;51.486;7.562;2022-07-09T02:44:53;101312.91;;;17.78;100.00
31761;BME280;18335;51.486;7.562;2022-07-09T02:47:21;101312.47;;;17.89;100.00
31761;BME280;18335;51.486;7.562;2022-07-09T02:49:47;101310.06;;;17.71;100.00
31761;BME280;18335;51.486;7.562;2022-07-09T02:52:14;101304.41;;;17.64;100.00
31761;BME280;18335;51.486;7.562;2022-07-09T02:54:41;101320.66;;;17.59;100.00
31761;BME280;18335;51.486;7.562;2022-07-09T02:57:07;101309.94;;;17.64;100.00
31761;BME280;18335;51.486;7.562;2022-07-09T02:59:35;101306.88;;;17.74;100.00
31761;BME280;18335;51.486;7.562;2022-07-09T03:02:01;101311.13;;;17.85;100.00
31761;BME280;18335;51.486;7.562;2022-07-09T03:04:29;101313.09;;;17.76;100.00
31761;BME280;18335;51.486;7.562;2022-07-09T03:06:56;101303.72;;;18.00;100.00
31761;BME280;18335;51.486;7.562;2022-07-09T03:09:23;101308.28;;;18.07;100.00
31761;BME280;18335;51.486;7.562;2022-07-09T03:11:50;101307.53;;;18.13;100.00
31761;BME280;18335;51.486;7.562;2022-07-09T03:14:16;101299.25;;;18.28;100.00
31761;BME280;18335;51.486;7.562;2022-07-09T03:16:43;101299.19;;;18.36;100.00
31761;BME280;18335;51.486;7.562;2022-07-09T03:19:10;101298.13;;;18.37;100.00
31761;BME280;18335;51.486;7.562;2022-07-09T03:21:38;101292.84;;;18.50;100.00
31761;BME280;18335;51.486;7.562;2022-07-09T03:24:05;101296.72;;;18.41;100.00
31761;BME280;18335;51.486;7.562;2022-07-09T03:26:33;101291.69;;;18.59;100.00
31761;BME280;18335;51.486;7.562;2022-07-09T03:29:00;101281.00;;;18.56;100.00
31761;BME280;18335;51.486;7.562;2022-07-09T03:31:27;101281.97;;;18.63;100.00
31761;BME280;18335;51.486;7.562;2022-07-09T03:33:53;101285.25;;;18.73;100.00
31761;BME280;18335;51.486;7.562;2022-07-09T03:36:20;101289.13;;;18.94;100.00
31761;BME280;18335;51.486;7.562;2022-07-09T03:38:48;101288.34;;;19.00;100.00
31761;BME280;18335;51.486;7.562;2022-07-09T03:41:15;101294.44;;;19.10;100.00
31761;BME280;18335;51.486;7.562;2022-07-09T03:43:41;101288.13;;;19.16;100.00
31761;BME280;18335;51.486;7.562;2022-07-09T03:46:08;101293.03;;;19.35;100.00
31761;BME280;18335;51.486;7.562;2022-07-09T03:48:35;101294.84;;;19.28;100.00
31761;BME280;18335;51.486;7.562;2022-07-09T03:51:02;101292.72;;;19.30;100.00
31761;BME280;18335;51.486;7.562;2022-07-09T03:53:29;101294.16;;;19.05;100.00
31761;BME280;18335;51.486;7.562;2022-07-09T03:55:57;101283.75;;;19.07;100.00
31761;BME280;18335;51.486;7.562;2022-07-09T03:58:23;101286.25;;;19.59;100.00
31761;BME280;18335;51.486;7.562;2022-07-09T04:00:50;101287.56;;;19.63;100.00
31761;BME280;18335;51.486;7.562;2022-07-09T04:03:17;101282.56;;;19.52;100.00
31761;BME280;18335;51.486;7.562;2022-07-09T04:05:44;101293.88;;;19.78;100.00
31761;BME280;18335;51.486;7.562;2022-07-09T04:08:11;101287.84;;;19.68;100.00
31761;BME280;18335;51.486;7.562;2022-07-09T04:10:38;101287.03;;;19.74;100.00
31761;BME280;18335;51.486;7.562;2022-07-09T04:13:06;101286.97;;;19.67;100.00
31761;BME280;18335;51.486;7.562;2022-07-09T04:15:33;101291.41;;;19.41;100.00
31761;BME280;18335;51.486;7.562;2022-07-09T04:17:59;101295.47;;;19.45;100.00
31761;BME280;18335;51.486;7.562;2022-07-09T04:20:26;101291.31;;;19.76;100.00
31761;BME280;18335;51.486;7.562;2022-07-09T04:22:53;101280.38;;;19.96;100.00
31761;BME280;18335;51.486;7.562;2022-07-09T04:25:19;101273.75;;;20.18;100.00
31761;BME280;18335;51.486;7.562;2022-07-09T04:27:47;101285.47;;;19.65;100.00
31761;BME280;18335;51.486;7.562;2022-07-09T04:30:15;101279.03;;;19.85;100.00
31761;BME280;18335;51.486;7.562;2022-07-09T04:32:42;101282.38;;;20.30;100.00
31761;BME280;18335;51.486;7.562;2022-07-09T04:35:08;101272.19;;;20.43;100.00
31761;BME280;18335;51.486;7.562;2022-07-09T04:37:37;101270.56;;;20.21;100.00
31761;BME280;18335;51.486;7.562;2022-07-09T04:40:05;101276.88;;;20.43;100.00
31761;BME280;18335;51.486;7.562;2022-07-09T04:42:32;101271.25;;;20.58;100.00
31761;BME280;18335;51.486;7.562;2022-07-09T04:44:58;101274.09;;;20.77;100.00
31761;BME280;18335;51.486;7.562;2022-07-09T04:47:27;101266.94;;;20.55;100.00
31761;BME280;18335;51.486;7.562;2022-07-09T04:49:53;101277.41;;;20.60;100.00
31761;BME280;18335;51.486;7.562;2022-07-09T04:52:20;101280.75;;;20.14;100.00
31761;BME280;18335;51.486;7.562;2022-07-09T04:54:47;101280.75;;;20.42;100.00
31761;BME280;18335;51.486;7.562;2022-07-09T04:57:14;101275.16;;;20.83;100.00
31761;BME280;18335;51.486;7.562;2022-07-09T04:59:41;101280.97;;;20.47;100.00
31761;BME280;18335;51.486;7.562;2022-07-09T05:02:07;101277.47;;;20.66;100.00
31761;BME280;18335;51.486;7.562;2022-07-09T05:04:35;101282.16;;;20.04;100.00
31761;BME280;18335;51.486;7.562;2022-07-09T05:07:02;101281.06;;;20.26;100.00
31761;BME280;18335;51.486;7.562;2022-07-09T05:09:30;101274.31;;;20.82;100.00
31761;BME280;18335;51.486;7.562;2022-07-09T05:11:57;101284.66;;;19.99;100.00
31761;BME280;18335;51.486;7.562;2022-07-09T05:14:24;101274.84;;;20.52;100.00
31761;BME280;18335;51.486;7.562;2022-07-09T05:16:50;101283.28;;;20.43;100.00
31761;BME280;18335;51.486;7.562;2022-07-09T05:19:17;101289.28;;;20.19;100.00
31761;BME280;18335;51.486;7.562;2022-07-09T05:21:45;101293.59;;;20.22;100.00
31761;BME280;18335;51.486;7.562;2022-07-09T05:24:12;101286.50;;;20.81;100.00
31761;BME280;18335;51.486;7.562;2022-07-09T05:26:38;101284.28;;;20.70;100.00
31761;BME280;18335;51.486;7.562;2022-07-09T05:29:06;101290.06;;;20.69;100.00
31761;BME280;18335;51.486;7.562;2022-07-09T05:31:32;101304.97;;;20.68;100.00
31761;BME280;18335;51.486;7.562;2022-07-09T05:33:59;101299.78;;;21.06;100.00
31761;BME280;18335;51.486;7.562;2022-07-09T05:36:26;101290.97;;;20.82;100.00
31761;BME280;18335;51.486;7.562;2022-07-09T05:38:55;101296.38;;;21.04;100.00
31761;BME280;18335;51.486;7.562;2022-07-09T05:41:22;101295.44;;;21.31;100.00
31761;BME280;18335;51.486;7.562;2022-07-09T05:43:50;101286.84;;;21.13;100.00
31761;BME280;18335;51.486;7.562;2022-07-09T05:46:16;101296.06;;;21.26;100.00
31761;BME280;18335;51.486;7.562;2022-07-09T05:48:43;101288.41;;;21.48;100.00
31761;BME280;18335;51.486;7.562;2022-07-09T05:51:10;101288.81;;;21.45;100.00
31761;BME280;18335;51.486;7.562;2022-07-09T05:53:36;101286.72;;;21.47;100.00
31761;BME280;18335;51.486;7.562;2022-07-09T05:56:05;101290.78;;;21.64;100.00
31761;BME280;18335;51.486;7.562;2022-07-09T05:58:32;101282.88;;;21.68;100.00
31761;BME280;18335;51.486;7.562;2022-07-09T06:00:59;101283.50;;;21.43;100.00
31761;BME280;18335;51.486;7.562;2022-07-09T06:03:26;101288.81;;;21.45;100.00
31761;BME280;18335;51.486;7.562;2022-07-09T06:05:52;101285.84;;;21.60;100.00
31761;BME280;18335;51.486;7.562;2022-07-09T06:08:19;101295.75;;;21.88;100.00
31761;BME280;18335;51.486;7.562;2022-07-09T06:10:46;101294.59;;;21.43;100.00
31761;BME280;18335;51.486;7.562;2022-07-09T06:13:15;101289.28;;;21.81;100.00
31761;BME280;18335;51.486;7.562;2022-07-09T06:15:41;101279.28;;;22.13;100.00
31761;BME280;18335;51.486;7.562;2022-07-09T06:18:08;101280.78;;;22.02;100.00
31761;BME280;18335;51.486;7.562;2022-07-09T06:20:35;101282.69;;;21.95;100.00
31761;BME280;18335;51.486;7.562;2022-07-09T06:23:01;101283.75;;;22.14;100.00
31761;BME280;18335;51.486;7.562;2022-07-09T06:25:28;101277.31;;;22.14;100.00
31761;BME280;18335;51.486;7.562;2022-07-09T06:27:55;101271.50;;;22.35;100.00
31761;BME280;18335;51.486;7.562;2022-07-09T06:30:24;101286.31;;;22.02;100.00
31761;BME280;18335;51.486;7.562;2022-07-09T06:32:50;101293.16;;;21.93;100.00
31761;BME280;18335;51.486;7.562;2022-07-09T06:35:17;101287.56;;;21.80;100.00
31761;BME280;18335;51.486;7.562;2022-07-09T06:37:44;101283.75;;;21.68;100.00
31761;BME280;18335;51.486;7.562;2022-07-09T06:40:11;101281.59;;;22.23;100.00
31761;BME280;18335;51.486;7.562;2022-07-09T06:42:38;101286.31;;;22.16;100.00
31761;BME280;18335;51.486;7.562;2022-07-09T06:45:29;101277.94;;;22.35;100.00
31761;BME280;18335;51.486;7.562;2022-07-09T06:47:56;101275.59;;;22.39;100.00
31761;BME280;18335;51.486;7.562;2022-07-09T06:50:22;101274.72;;;22.45;100.00
31761;BME280;18335;51.486;7.562;2022-07-09T06:52:49;101278.56;;;22.44;100.00
31761;BME280;18335;51.486;7.562;2022-07-09T06:55:16;101282.38;;;22.56;100.00
31761;BME280;18335;51.486;7.562;2022-07-09T06:57:42;101281.41;;;22.88;100.00
31761;BME280;18335;51.486;7.562;2022-07-09T07:00:09;101285.22;;;22.30;100.00
31761;BME280;18335;51.486;7.562;2022-07-09T07:02:38;101289.28;;;21.81;100.00
31761;BME280;18335;51.486;7.562;2022-07-09T07:05:05;101287.06;;;22.55;100.00
31761;BME280;18335;51.486;7.562;2022-07-09T07:07:32;101283.00;;;22.58;100.00
31761;BME280;18335;51.486;7.562;2022-07-09T07:09:58;101280.63;;;22.81;100.00
31761;BME280;18335;51.486;7.562;2022-07-09T07:12:25;101290.28;;;23.17;100.00
31761;BME280;18335;51.486;7.562;2022-07-09T07:14:52;101281.38;;;23.01;100.00
31761;BME280;18335;51.486;7.562;2022-07-09T07:17:19;101281.56;;;22.49;100.00
31761;BME280;18335;51.486;7.562;2022-07-09T07:19:47;101277.25;;;22.46;100.00
31761;BME280;18335;51.486;7.562;2022-07-09T07:22:13;101274.97;;;22.17;100.00
31761;BME280;18335;51.486;7.562;2022-07-09T07:24:40;101279.56;;;22.76;100.00
31761;BME280;18335;51.486;7.562;2022-07-09T07:27:07;101278.28;;;22.58;100.00
31761;BME280;18335;51.486;7.562;2022-07-09T07:29:34;101270.06;;;22.96;100.00
31761;BME280;18335;51.486;7.562;2022-07-09T07:32:00;101264.88;;;23.38;100.00
31761;BME280;18335;51.486;7.562;2022-07-09T07:34:27;101271.72;;;23.73;100.00
31761;BME280;18335;51.486;7.562;2022-07-09T07:36:55;101264.94;;;23.87;100.00
31761;BME280;18335;51.486;7.562;2022-07-09T07:39:22;101268.69;;;23.99;100.00
31761;BME280;18335;51.486;7.562;2022-07-09T07:41:50;101265.53;;;23.33;100.00
31761;BME280;18335;51.486;7.562;2022-07-09T07:44:17;101264.09;;;23.62;100.00
31761;BME280;18335;51.486;7.562;2022-07-09T07:46:43;101260.53;;;23.80;100.00
31761;BME280;18335;51.486;7.562;2022-07-09T07:49:10;101266.22;;;23.29;100.00
31761;BME280;18335;51.486;7.562;2022-07-09T07:51:37;101266.06;;;23.55;100.00
31761;BME280;18335;51.486;7.562;2022-07-09T07:54:05;101256.44;;;23.51;100.00
31761;BME280;18335;51.486;7.562;2022-07-09T07:56:31;101266.31;;;22.58;100.00
31761;BME280;18335;51.486;7.562;2022-07-09T07:59:02;101259.59;;;24.10;100.00
31761;BME280;18335;51.486;7.562;2022-07-09T08:01:28;101258.47;;;24.18;100.00
31761;BME280;18335;51.486;7.562;2022-07-09T08:03:55;101264.53;;;23.84;100.00
31761;BME280;18335;51.486;7.562;2022-07-09T08:06:22;101259.09;;;23.01;100.00
31761;BME280;18335;51.486;7.562;2022-07-09T08:08:49;101263.13;;;23.99;100.00
31761;BME280;18335;51.486;7.562;2022-07-09T08:11:17;101265.41;;;24.34;100.00
31761;BME280;18335;51.486;7.562;2022-07-09T08:13:43;101254.72;;;24.67;100.00
31761;BME280;18335;51.486;7.562;2022-07-09T08:16:10;101252.53;;;24.33;100.00
31761;BME280;18335;51.486;7.562;2022-07-09T08:18:37;101270.66;;;23.74;98.83
31761;BME280;18335;51.486;7.562;2022-07-09T08:21:04;101256.31;;;24.38;99.20
31761;BME280;18335;51.486;7.562;2022-07-09T08:23:31;101248.81;;;24.75;97.25
31761;BME280;18335;51.486;7.562;2022-07-09T08:26:18;101244.31;;;24.38;98.59
31761;BME280;18335;51.486;7.562;2022-07-09T08:28:45;101238.72;;;24.56;96.48
31761;BME280;18335;51.486;7.562;2022-07-09T08:31:11;101231.47;;;24.55;93.44
31761;BME280;18335;51.486;7.562;2022-07-09T08:33:38;101226.63;;;24.44;91.31
31761;BME280;18335;51.486;7.562;2022-07-09T08:36:05;101225.63;;;24.93;89.38
31761;BME280;18335;51.486;7.562;2022-07-09T08:38:32;101218.66;;;24.65;87.18
31761;BME280;18335;51.486;7.562;2022-07-09T08:41:00;101218.13;;;24.39;86.20
31761;BME280;18335;51.486;7.562;2022-07-09T08:43:28;101217.28;;;25.04;87.08
31761;BME280;18335;51.486;7.562;2022-07-09T08:45:58;101218.41;;;24.85;87.32
31761;BME280;18335;51.486;7.562;2022-07-09T08:48:25;101211.28;;;25.60;84.72
31761;BME280;18335;51.486;7.562;2022-07-09T08:50:52;101209.13;;;26.09;83.58
31761;BME280;18335;51.486;7.562;2022-07-09T08:53:19;101211.06;;;25.73;81.42
31761;BME280;18335;51.486;7.562;2022-07-09T08:55:46;101202.09;;;25.83;85.62
31761;BME280;18335;51.486;7.562;2022-07-09T08:58:14;101205.91;;;25.47;80.51
31761;BME280;18335;51.486;7.562;2022-07-09T09:00:42;101202.69;;;25.32;82.22
31761;BME280;18335;51.486;7.562;2022-07-09T09:03:09;101202.41;;;25.75;81.95
31761;BME280;18335;51.486;7.562;2022-07-09T09:05:35;101204.38;;;25.74;78.94
31761;BME280;18335;51.486;7.562;2022-07-09T09:08:16;101200.00;;;26.13;78.69
31761;BME280;18335;51.486;7.562;2022-07-09T09:10:45;101199.38;;;26.11;77.72
31761;BME280;18335;51.486;7.562;2022-07-09T09:13:14;101195.25;;;26.14;76.84
31761;BME280;18335;51.486;7.562;2022-07-09T09:15:42;101195.94;;;26.56;77.06
31761;BME280;18335;51.486;7.562;2022-07-09T09:18:09;101185.66;;;26.33;75.01
31761;BME280;18335;51.486;7.562;2022-07-09T09:20:36;101189.31;;;26.10;77.15
31761;BME280;18335;51.486;7.562;2022-07-09T09:23:03;101182.22;;;26.43;78.88
31761;BME280;18335;51.486;7.562;2022-07-09T09:25:36;101194.06;;;26.73;73.78
31761;BME280;18335;51.486;7.562;2022-07-09T09:28:03;101183.88;;;26.67;74.42
31761;BME280;18335;51.486;7.562;2022-07-09T09:30:30;101174.56;;;26.78;75.99
31761;BME280;18335;51.486;7.562;2022-07-09T09:32:59;101178.16;;;26.62;74.24
31761;BME280;18335;51.486;7.562;2022-07-09T09:35:26;101180.59;;;26.98;71.42
31761;BME280;18335;51.486;7.562;2022-07-09T09:37:54;101179.78;;;27.14;69.03
31761;BME280;18335;51.486;7.562;2022-07-09T09:40:21;101183.69;;;27.13;69.21
31761;BME280;18335;51.486;7.562;2022-07-09T09:42:48;101186.41;;;27.08;69.74
31761;BME280;18335;51.486;7.562;2022-07-09T09:45:16;101174.19;;;26.86;71.86
31761;BME280;18335;51.486;7.562;2022-07-09T09:47:46;101178.47;;;26.37;74.19
31761;BME280;18335;51.486;7.562;2022-07-09T09:50:18;101170.47;;;26.17;72.16
31761;BME280;18335;51.486;7.562;2022-07-09T09:52:46;101183.75;;;25.34;73.76
31761;BME280;18335;51.486;7.562;2022-07-09T09:55:14;101184.06;;;25.56;77.91
31761;BME280;18335;51.486;7.562;2022-07-09T09:57:41;101174.09;;;25.60;74.68
31761;BME280;18335;51.486;7.562;2022-07-09T10:00:09;101168.63;;;25.65;73.68
31761;BME280;18335;51.486;7.562;2022-07-09T10:02:38;101163.28;;;26.10;74.02
31761;BME280;18335;51.486;7.562;2022-07-09T10:05:06;101157.59;;;26.16;72.04
31761;BME280;18335;51.486;7.562;2022-07-09T10:07:35;101164.63;;;26.07;71.27
31761;BME280;18335;51.486;7.562;2022-07-09T10:10:02;101158.00;;;26.48;69.88
31761;BME280;18335;51.486;7.562;2022-07-09T10:12:33;101160.19;;;26.34;70.34
31761;BME280;18335;51.486;7.562;2022-07-09T10:15:01;101160.75;;;26.60;69.59
31761;BME280;18335;51.486;7.562;2022-07-09T10:17:38;101157.13;;;26.48;69.75
31761;BME280;18335;51.486;7.562;2022-07-09T10:20:06;101164.44;;;25.33;70.99
31761;BME280;18335;51.486;7.562;2022-07-09T10:22:38;101160.72;;;25.97;70.51
31761;BME280;18335;51.486;7.562;2022-07-09T10:25:07;101147.09;;;26.12;69.17
31761;BME280;18335;51.486;7.562;2022-07-09T10:27:43;101150.50;;;26.37;69.83
31761;BME280;18335;51.486;7.562;2022-07-09T10:30:22;101149.41;;;26.66;68.89
31761;BME280;18335;51.486;7.562;2022-07-09T10:33:01;101139.94;;;26.27;68.67
31761;BME280;18335;51.486;7.562;2022-07-09T10:35:28;101142.09;;;26.25;69.31
31761;BME280;18335;51.486;7.562;2022-07-09T10:37:56;101150.31;;;26.44;71.31
31761;BME280;18335;51.486;7.562;2022-07-09T10:40:23;101142.13;;;25.91;69.23
31761;BME280;18335;51.486;7.562;2022-07-09T10:43:00;101145.78;;;25.15;70.61
31761;BME280;18335;51.486;7.562;2022-07-09T10:45:29;101146.59;;;24.92;72.36
31761;BME280;18335;51.486;7.562;2022-07-09T10:47:58;101136.66;;;26.19;69.92
31761;BME280;18335;51.486;7.562;2022-07-09T10:50:27;101134.69;;;26.08;69.20
31761;BME280;18335;51.486;7.562;2022-07-09T10:52:54;101137.72;;;26.29;69.22
31761;BME280;18335;51.486;7.562;2022-07-09T10:55:23;101141.50;;;26.23;70.08
31761;BME280;18335;51.486;7.562;2022-07-09T10:57:50;101138.94;;;26.62;69.70
31761;BME280;18335;51.486;7.562;2022-07-09T11:00:19;101132.88;;;26.13;67.33
31761;BME280;18335;51.486;7.562;2022-07-09T11:02:53;101130.16;;;26.98;66.36
31761;BME280;18335;51.486;7.562;2022-07-09T11:05:20;101133.16;;;27.08;67.11
31761;BME280;18335;51.486;7.562;2022-07-09T11:07:58;101129.72;;;27.51;65.01
31761;BME280;18335;51.486;7.562;2022-07-09T11:10:27;101115.81;;;27.56;63.47
31761;BME280;18335;51.486;7.562;2022-07-09T11:12:54;101129.25;;;27.09;63.21
31761;BME280;18335;51.486;7.562;2022-07-09T11:15:24;101119.06;;;27.03;64.35
31761;BME280;18335;51.486;7.562;2022-07-09T11:18:00;101126.38;;;26.76;65.47
31761;BME280;18335;51.486;7.562;2022-07-09T11:20:28;101120.66;;;26.43;64.05
31761;BME280;18335;51.486;7.562;2022-07-09T11:22:55;101114.72;;;27.12;63.00
31761;BME280;18335;51.486;7.562;2022-07-09T11:25:23;101112.13;;;27.22;65.09
31761;BME280;18335;51.486;7.562;2022-07-09T11:27:55;101109.78;;;27.48;62.60
31761;BME280;18335;51.486;7.562;2022-07-09T11:30:22;101098.44;;;28.14;60.51
31761;BME280;18335;51.486;7.562;2022-07-09T11:32:50;101098.59;;;28.24;59.78
31761;BME280;18335;51.486;7.562;2022-07-09T11:35:24;101096.31;;;27.66;61.24
31761;BME280;18335;51.486;7.562;2022-07-09T11:37:51;101104.63;;;27.78;61.37
31761;BME280;18335;51.486;7.562;2022-07-09T11:40:18;101090.50;;;28.28;61.82
31761;BME280;18335;51.486;7.562;2022-07-09T11:42:45;101088.94;;;27.77;60.76
31761;BME280;18335;51.486;7.562;2022-07-09T11:45:13;101079.88;;;27.91;60.96
31761;BME280;18335;51.486;7.562;2022-07-09T11:47:40;101083.38;;;27.43;60.40
31761;BME280;18335;51.486;7.562;2022-07-09T11:50:09;101077.50;;;28.22;61.23
31761;BME280;18335;51.486;7.562;2022-07-09T11:52:37;101071.97;;;27.17;61.00
31761;BME280;18335;51.486;7.562;2022-07-09T11:55:10;101071.38;;;27.48;61.75
31761;BME280;18335;51.486;7.562;2022-07-09T11:57:37;101072.81;;;27.17;61.91
31761;BME280;18335;51.486;7.562;2022-07-09T12:00:06;101063.63;;;27.22;63.89
31761;BME280;18335;51.486;7.562;2022-07-09T12:02:38;101056.94;;;27.78;65.07
31761;BME280;18335;51.486;7.562;2022-07-09T12:05:07;101061.41;;;27.74;63.25
31761;BME280;18335;51.486;7.562;2022-07-09T12:07:35;101072.91;;;26.77;65.17
31761;BME280;18335;51.486;7.562;2022-07-09T12:10:04;101061.56;;;26.27;64.69
31761;BME280;18335;51.486;7.562;2022-07-09T12:12:33;101060.97;;;26.14;66.50
31761;BME280;18335;51.486;7.562;2022-07-09T12:15:01;101066.25;;;25.87;67.65
31761;BME280;18335;51.486;7.562;2022-07-09T12:17:28;101068.00;;;25.42;69.62
31761;BME280;18335;51.486;7.562;2022-07-09T12:19:58;101073.63;;;26.05;74.90
31761;BME280;18335;51.486;7.562;2022-07-09T12:22:25;101074.25;;;26.07;77.29
31761;BME280;18335;51.486;7.562;2022-07-09T12:24:52;101091.25;;;25.12;89.66
31761;BME280;18335;51.486;7.562;2022-07-09T12:27:20;101082.84;;;24.11;100.00
31761;BME280;18335;51.486;7.562;2022-07-09T12:29:47;101078.34;;;24.10;100.00
31761;BME280;18335;51.486;7.562;2022-07-09T12:32:14;101072.28;;;24.32;100.00
31761;BME280;18335;51.486;7.562;2022-07-09T12:34:41;101073.06;;;24.39;100.00
31761;BME280;18335;51.486;7.562;2022-07-09T12:37:09;101076.00;;;24.26;100.00
31761;BME280;18335;51.486;7.562;2022-07-09T12:39:36;101066.56;;;24.08;100.00
31761;BME280;18335;51.486;7.562;2022-07-09T12:42:03;101066.66;;;24.20;100.00
31761;BME280;18335;51.486;7.562;2022-07-09T12:44:30;101066.72;;;24.13;100.00